createdAt,value
2019-03-08T00:06:26.449Z,98928.55
2019-03-08T00:11:54.871Z,98928.36
2019-03-08T00:17:19.755Z,98924.03
2019-03-08T00:22:52.856Z,98919.34
2019-03-08T00:28:17.165Z,98913.54
2019-03-08T00:33:38.583Z,98903.56
2019-03-08T00:39:00.139Z,98920.75
2019-03-08T00:44:22.291Z,98903.22
2019-03-08T00:49:44.243Z,98905.83
2019-03-08T00:55:24.472Z,98897.94
2019-03-08T01:00:47.864Z,98897.59
2019-03-08T01:06:10.504Z,98903.36
2019-03-08T01:11:35.250Z,98880.47
2019-03-08T01:16:57.967Z,98882.16
2019-03-08T01:22:22.136Z,98883.51
2019-03-08T01:28:00.751Z,98883.75
2019-03-08T01:33:23.423Z,98876.89
2019-03-08T01:38:46.028Z,98880.02
2019-03-08T01:44:07.981Z,98881.31
2019-03-08T01:49:29.495Z,98877.94
2019-03-08T01:54:53.804Z,98874.39
2019-03-08T02:00:19.166Z,98873.42
2019-03-08T02:05:49.121Z,98875.77
2019-03-08T02:11:12.693Z,98878.73
2019-03-08T02:16:34.043Z,98883.80
2019-03-08T02:21:57.063Z,98877.23
2019-03-08T02:27:20.800Z,98882.52
2019-03-08T02:32:45.350Z,98894.86
2019-03-08T02:38:09.115Z,98905.38
2019-03-08T02:43:32.287Z,98901.80
2019-03-08T02:48:53.646Z,98913.05
2019-03-08T02:54:15.950Z,98915.44
2019-03-08T02:59:37.878Z,98923.44
2019-03-08T03:05:11.292Z,98917.69
2019-03-08T03:10:50.428Z,98920.44
2019-03-08T03:16:13.317Z,98927.86
2019-03-08T03:21:35.238Z,98928.19
2019-03-08T03:27:01.780Z,98933.77
2019-03-08T03:32:24.456Z,98922.80
2019-03-08T03:37:47.556Z,98926.85
2019-03-08T03:43:09.598Z,98928.38
2019-03-08T03:48:32.636Z,98929.62
2019-03-08T03:53:57.505Z,98920.70
2019-03-08T03:59:20.272Z,98923.70
2019-03-08T04:04:44.050Z,98922.89
2019-03-08T04:15:58.294Z,98928.36
2019-03-08T04:21:35.460Z,98922.97
2019-03-08T04:27:03.594Z,98926.11
2019-03-08T04:32:34.214Z,98913.35
2019-03-08T04:37:56.185Z,98923.48
2019-03-08T04:43:42.687Z,98883.53
2019-03-08T04:49:03.898Z,98903.91
2019-03-08T04:54:26.518Z,98902.83
2019-03-08T04:59:53.475Z,98914.77
2019-03-08T05:05:17.204Z,98917.06
2019-03-08T05:10:46.416Z,98925.88
2019-03-08T05:16:11.453Z,98921.45
2019-03-08T05:21:33.522Z,98926.27
2019-03-08T05:26:57.218Z,98931.70
2019-03-08T05:32:21.077Z,98931.95
2019-03-08T05:37:42.536Z,98934.90
2019-03-08T05:43:05.105Z,98935.76
2019-03-08T05:48:29.186Z,98931.38
2019-03-08T05:53:53.739Z,98932.84
2019-03-08T05:59:14.882Z,98937.45
2019-03-08T06:04:35.891Z,98945.06
2019-03-08T06:09:58.248Z,98953.90
2019-03-08T06:15:19.377Z,98959.33
2019-03-08T06:20:48.190Z,98959.94
2019-03-08T06:26:12.129Z,98950.11
2019-03-08T06:31:35.580Z,98955.11
2019-03-08T06:37:12.788Z,98946.73
2019-03-08T06:42:34.197Z,98943.23
2019-03-08T06:47:59.783Z,98943.86
2019-03-08T06:53:32.029Z,98948.11
2019-03-08T06:59:18.130Z,98947.06
2019-03-08T07:04:39.729Z,98950.90
2019-03-08T07:10:00.528Z,98952.28
2019-03-08T07:15:23.501Z,98957.57
2019-03-08T07:21:06.225Z,98964.91
2019-03-08T07:26:58.680Z,98959.03
2019-03-08T07:32:44.447Z,98954.05
2019-03-08T07:38:40.447Z,98960.58
2019-03-08T07:44:34.288Z,98960.97
2019-03-08T07:50:15.624Z,98960.95
2019-03-08T08:02:10.731Z,98943.27
2019-03-08T08:07:39.393Z,98938.81
2019-03-08T08:13:20.932Z,98933.90
2019-03-08T08:19:01.548Z,98922.52
2019-03-08T08:24:27.212Z,98924.26
2019-03-08T08:29:59.229Z,98912.63
2019-03-08T08:35:44.310Z,98905.75
2019-03-08T08:41:24.513Z,98910.42
2019-03-08T08:47:23.669Z,98902.10
2019-03-08T08:53:07.450Z,98902.31
2019-03-08T08:58:49.503Z,98901.53
2019-03-08T09:04:38.363Z,98893.60
2019-03-08T09:10:28.572Z,98896.55
2019-03-08T09:16:08.801Z,98883.30
2019-03-08T09:21:55.612Z,98875.41
2019-03-08T09:27:31.449Z,98880.64
2019-03-08T09:33:12.050Z,98891.52
2019-03-08T09:38:43.041Z,98891.04
2019-03-08T09:44:23.929Z,98886.03
2019-03-08T09:50:12.700Z,98878.97
2019-03-08T09:55:40.264Z,98883.33
2019-03-08T10:01:31.331Z,98883.06
2019-03-08T10:07:14.362Z,98881.78
2019-03-08T10:12:50.168Z,98882.50
2019-03-08T10:18:40.312Z,98875.89
2019-03-08T10:24:08.829Z,98876.39
2019-03-08T10:29:49.847Z,98869.15
2019-03-08T10:35:29.821Z,98867.64
2019-03-08T10:41:15.293Z,98864.83
2019-03-08T10:46:50.683Z,98844.33
2019-03-08T10:52:21.247Z,98836.41
2019-03-08T10:58:15.933Z,98826.70
2019-03-08T11:03:52.497Z,98822.38
2019-03-08T11:09:29.566Z,98817.00
2019-03-08T11:15:09.232Z,98802.73
2019-03-08T11:20:50.270Z,98805.22
2019-03-08T11:26:28.060Z,98801.92
2019-03-08T11:31:55.607Z,98787.67
2019-03-08T11:37:27.907Z,98789.94
2019-03-08T11:43:15.335Z,98790.52
2019-03-08T11:48:55.634Z,98779.30
2019-03-08T11:54:45.421Z,98781.84
2019-03-08T12:00:25.078Z,98761.44
2019-03-08T12:06:08.100Z,98756.50
2019-03-08T12:12:07.826Z,98749.34
2019-03-08T12:18:06.989Z,98746.53
2019-03-08T12:23:45.587Z,98741.69
2019-03-08T12:29:21.301Z,98727.30
2019-03-08T12:34:51.752Z,98728.13
2019-03-08T12:40:32.506Z,98728.13
2019-03-08T12:46:19.770Z,98731.83
2019-03-08T12:51:58.719Z,98715.26
2019-03-08T12:57:40.240Z,98725.66
2019-03-08T13:03:18.008Z,98716.73
2019-03-08T13:08:59.812Z,98712.91
2019-03-08T13:14:23.864Z,98710.72
2019-03-08T13:19:47.681Z,98709.00
2019-03-08T13:25:09.378Z,98698.03
2019-03-08T13:30:33.164Z,98695.70
2019-03-08T13:35:54.987Z,98697.56
2019-03-08T13:41:16.326Z,98692.05
2019-03-08T13:46:37.819Z,98692.38
2019-03-08T13:51:59.931Z,98688.16
2019-03-08T13:57:21.681Z,98696.39
2019-03-08T14:02:42.702Z,98687.72
2019-03-08T14:08:04.236Z,98680.51
2019-03-08T14:13:27.204Z,98688.40
2019-03-08T14:18:48.849Z,98680.00
2019-03-08T14:24:11.373Z,98680.66
2019-03-08T14:29:33.104Z,98676.09
2019-03-08T14:34:55.304Z,98697.55
2019-03-08T14:40:29.042Z,98646.54
2019-03-08T14:46:12.859Z,98664.36
2019-03-08T14:51:36.060Z,98662.05
2019-03-08T14:56:57.814Z,98662.05
2019-03-08T15:02:19.773Z,98645.22
2019-03-08T15:07:42.131Z,98645.22
2019-03-08T15:13:12.890Z,98659.28
2019-03-08T15:18:37.127Z,98643.70
2019-03-08T15:24:01.662Z,98663.33
2019-03-08T15:29:23.576Z,98667.34
2019-03-08T15:34:45.459Z,98662.67
2019-03-08T15:40:09.533Z,98663.98
2019-03-08T15:45:30.388Z,98665.33
2019-03-08T15:50:53.961Z,98658.53
2019-03-08T15:56:18.184Z,98658.48
2019-03-08T16:01:39.667Z,98667.66
2019-03-08T16:07:01.288Z,98650.55
2019-03-08T16:12:22.234Z,98672.96
2019-03-08T16:17:43.409Z,98666.93
2019-03-08T16:23:15.914Z,98670.73
2019-03-08T16:28:37.137Z,98682.09
2019-03-08T16:33:59.599Z,98684.70
2019-03-08T16:39:33.898Z,98690.98
2019-03-08T16:45:17.135Z,98686.35
2019-03-08T16:51:15.803Z,98695.23
2019-03-08T16:56:45.481Z,98699.11
2019-03-08T17:02:36.236Z,98695.84
2019-03-08T17:08:03.356Z,98699.58
2019-03-08T17:13:50.140Z,98703.77
2019-03-08T17:19:27.024Z,98705.70
2019-03-08T17:25:16.758Z,98695.49
2019-03-08T17:31:05.175Z,98717.17
2019-03-08T17:36:48.475Z,98699.13
2019-03-08T17:42:38.804Z,98728.86
2019-03-08T17:48:18.543Z,98717.61
2019-03-08T17:54:01.699Z,98715.20
2019-03-08T17:59:31.257Z,98719.25
2019-03-08T18:05:13.133Z,98727.41
2019-03-08T18:11:00.449Z,98730.67
2019-03-08T18:16:38.546Z,98749.39
2019-03-08T18:22:12.829Z,98757.30
2019-03-08T18:27:59.383Z,98744.52
2019-03-08T18:33:43.337Z,98755.39
2019-03-08T18:39:28.380Z,98741.27
2019-03-08T18:45:18.906Z,98752.46
2019-03-08T18:50:53.643Z,98748.47
2019-03-08T18:56:33.209Z,98750.70
2019-03-08T19:02:29.312Z,98747.66
2019-03-08T19:08:19.487Z,98762.77
2019-03-08T19:14:00.672Z,98768.55
2019-03-08T19:19:41.799Z,98754.80
2019-03-08T19:25:17.885Z,98754.92
2019-03-08T19:31:07.794Z,98763.72
2019-03-08T19:36:46.880Z,98760.11
2019-03-08T19:42:27.332Z,98767.83
2019-03-08T19:48:17.075Z,98775.38
2019-03-08T19:53:53.577Z,98777.09
2019-03-08T19:59:39.673Z,98779.89
2019-03-08T20:05:21.940Z,98777.43
2019-03-08T20:11:04.233Z,98793.73
2019-03-08T20:16:45.188Z,98801.95
2019-03-08T20:22:35.274Z,98802.20
2019-03-08T20:28:13.256Z,98805.36
2019-03-08T20:33:48.759Z,98805.45
2019-03-08T20:39:38.997Z,98808.88
2019-03-08T20:45:07.585Z,98809.72
2019-03-08T20:50:30.928Z,98811.28
2019-03-08T20:55:52.164Z,98814.87
2019-03-08T21:01:13.670Z,98816.34
2019-03-08T21:06:46.289Z,98821.94
2019-03-08T21:12:07.528Z,98820.63
2019-03-08T21:17:28.833Z,98820.69
2019-03-08T21:22:51.267Z,98824.92
2019-03-08T21:28:12.137Z,98821.09
2019-03-08T21:33:33.181Z,98816.76
2019-03-08T21:38:54.467Z,98815.80
2019-03-08T21:44:17.603Z,98811.96
2019-03-08T21:49:39.524Z,98807.02
2019-03-08T21:55:02.223Z,98805.92
2019-03-08T22:00:23.656Z,98816.98
2019-03-08T22:05:44.601Z,98798.17
2019-03-08T22:11:34.221Z,98793.20
2019-03-08T22:16:56.408Z,98797.83
2019-03-08T22:22:17.241Z,98796.95
2019-03-08T22:27:39.209Z,98790.67
2019-03-08T22:33:00.200Z,98789.23
2019-03-08T22:38:21.490Z,98780.56
2019-03-08T22:43:42.609Z,98784.77
2019-03-08T22:49:03.929Z,98798.13
2019-03-08T22:54:25.188Z,98800.44
2019-03-08T22:59:46.979Z,98797.00
2019-03-08T23:05:08.338Z,98798.75
2019-03-08T23:10:29.728Z,98796.33
2019-03-08T23:15:52.013Z,98804.64
2019-03-08T23:21:16.174Z,98799.00
2019-03-08T23:26:58.212Z,98797.79
2019-03-08T23:32:35.947Z,98802.50
2019-03-08T23:37:57.009Z,98797.93
2019-03-08T23:43:19.308Z,98796.83
2019-03-08T23:48:40.549Z,98799.25
2019-03-08T23:54:03.720Z,98806.79
2019-03-08T23:59:24.900Z,98808.22
